sensor_id;sensor_type;location;lat;lon;timestamp;temperature;humidity
21508;DHT22;10915;54.352;9.074;2022-12-05T00:01:49;5.20;99.90
21508;DHT22;10915;54.352;9.074;2022-12-05T00:04:17;5.20;99.90
21508;DHT22;10915;54.352;9.074;2022-12-05T00:06:44;5.20;99.90
21508;DHT22;10915;54.352;9.074;2022-12-05T00:09:18;5.20;99.90
21508;DHT22;10915;54.352;9.074;2022-12-05T00:11:53;5.20;99.90
21508;DHT22;10915;54.352;9.074;2022-12-05T00:14:26;5.20;99.90
21508;DHT22;10915;54.352;9.074;2022-12-05T00:17:15;5.30;99.90
21508;DHT22;10915;54.352;9.074;2022-12-05T00:19:45;5.30;99.90
21508;DHT22;10915;54.352;9.074;2022-12-05T00:22:10;5.30;99.90
21508;DHT22;10915;54.352;9.074;2022-12-05T00:24:36;5.30;99.90
21508;DHT22;10915;54.352;9.074;2022-12-05T00:27:03;5.30;99.90
21508;DHT22;10915;54.352;9.074;2022-12-05T00:29:32;5.20;99.90
21508;DHT22;10915;54.352;9.074;2022-12-05T00:32:01;5.20;99.90
21508;DHT22;10915;54.352;9.074;2022-12-05T00:34:27;5.20;99.90
21508;DHT22;10915;54.352;9.074;2022-12-05T00:36:55;5.20;99.90
21508;DHT22;10915;54.352;9.074;2022-12-05T00:39:28;5.20;99.90
21508;DHT22;10915;54.352;9.074;2022-12-05T00:42:04;5.20;99.90
21508;DHT22;10915;54.352;9.074;2022-12-05T00:44:32;5.20;99.90
21508;DHT22;10915;54.352;9.074;2022-12-05T00:46:58;5.20;99.90
21508;DHT22;10915;54.352;9.074;2022-12-05T00:49:26;5.20;99.90
21508;DHT22;10915;54.352;9.074;2022-12-05T00:51:52;5.20;99.90
21508;DHT22;10915;54.352;9.074;2022-12-05T00:54:18;5.20;99.90
21508;DHT22;10915;54.352;9.074;2022-12-05T00:56:53;5.20;99.90
21508;DHT22;10915;54.352;9.074;2022-12-05T00:59:25;5.20;99.90
21508;DHT22;10915;54.352;9.074;2022-12-05T01:01:57;5.20;99.90
21508;DHT22;10915;54.352;9.074;2022-12-05T01:04:23;5.20;99.90
21508;DHT22;10915;54.352;9.074;2022-12-05T01:06:57;5.20;99.90
21508;DHT22;10915;54.352;9.074;2022-12-05T01:09:25;5.30;99.90
21508;DHT22;10915;54.352;9.074;2022-12-05T01:11:51;5.20;99.90
21508;DHT22;10915;54.352;9.074;2022-12-05T01:14:20;5.20;99.90
21508;DHT22;10915;54.352;9.074;2022-12-05T01:16:51;5.30;99.90
21508;DHT22;10915;54.352;9.074;2022-12-05T01:22:06;5.30;99.90
21508;DHT22;10915;54.352;9.074;2022-12-05T01:24:32;5.30;99.90
21508;DHT22;10915;54.352;9.074;2022-12-05T01:26:58;5.30;99.90
21508;DHT22;10915;54.352;9.074;2022-12-05T01:29:29;5.30;99.90
21508;DHT22;10915;54.352;9.074;2022-12-05T01:31:55;5.30;99.90
21508;DHT22;10915;54.352;9.074;2022-12-05T01:34:21;5.30;99.90
21508;DHT22;10915;54.352;9.074;2022-12-05T01:36:47;5.30;99.90
21508;DHT22;10915;54.352;9.074;2022-12-05T01:39:16;5.30;99.90
21508;DHT22;10915;54.352;9.074;2022-12-05T01:41:48;5.30;99.90
21508;DHT22;10915;54.352;9.074;2022-12-05T01:46:50;5.30;99.90
21508;DHT22;10915;54.352;9.074;2022-12-05T01:49:35;5.20;99.90
21508;DHT22;10915;54.352;9.074;2022-12-05T01:52:09;5.30;99.90
21508;DHT22;10915;54.352;9.074;2022-12-05T01:54:37;5.30;99.90
21508;DHT22;10915;54.352;9.074;2022-12-05T01:57:07;5.30;99.90
21508;DHT22;10915;54.352;9.074;2022-12-05T01:59:40;5.30;99.90
21508;DHT22;10915;54.352;9.074;2022-12-05T02:02:26;5.30;99.90
21508;DHT22;10915;54.352;9.074;2022-12-05T02:08:10;5.30;99.90
21508;DHT22;10915;54.352;9.074;2022-12-05T02:10:49;5.30;99.90
21508;DHT22;10915;54.352;9.074;2022-12-05T02:30:11;5.20;99.90
21508;DHT22;10915;54.352;9.074;2022-12-05T02:33:11;5.20;99.90
21508;DHT22;10915;54.352;9.074;2022-12-05T02:41:29;5.30;99.90
21508;DHT22;10915;54.352;9.074;2022-12-05T02:44:03;5.30;99.90
21508;DHT22;10915;54.352;9.074;2022-12-05T02:46:37;5.30;99.90
21508;DHT22;10915;54.352;9.074;2022-12-05T02:49:08;5.30;99.90
21508;DHT22;10915;54.352;9.074;2022-12-05T02:51:40;5.30;99.90
21508;DHT22;10915;54.352;9.074;2022-12-05T02:54:31;5.30;99.90
21508;DHT22;10915;54.352;9.074;2022-12-05T02:57:02;5.30;99.90
21508;DHT22;10915;54.352;9.074;2022-12-05T02:59:28;5.20;99.90
21508;DHT22;10915;54.352;9.074;2022-12-05T03:07:50;5.20;99.90
21508;DHT22;10915;54.352;9.074;2022-12-05T03:10:31;5.20;99.90
21508;DHT22;10915;54.352;9.074;2022-12-05T03:13:06;5.20;99.90
21508;DHT22;10915;54.352;9.074;2022-12-05T03:16:00;5.20;99.90
21508;DHT22;10915;54.352;9.074;2022-12-05T03:18:30;5.20;99.90
21508;DHT22;10915;54.352;9.074;2022-12-05T03:21:33;5.20;99.90
21508;DHT22;10915;54.352;9.074;2022-12-05T03:24:10;5.20;99.90
21508;DHT22;10915;54.352;9.074;2022-12-05T03:30:29;5.20;99.90
21508;DHT22;10915;54.352;9.074;2022-12-05T03:33:04;5.20;99.90
21508;DHT22;10915;54.352;9.074;2022-12-05T03:38:12;5.20;99.90
21508;DHT22;10915;54.352;9.074;2022-12-05T03:40:43;5.10;99.90
21508;DHT22;10915;54.352;9.074;2022-12-05T03:46:15;5.10;99.90
21508;DHT22;10915;54.352;9.074;2022-12-05T03:49:16;5.10;99.90
21508;DHT22;10915;54.352;9.074;2022-12-05T03:52:33;5.10;99.90
21508;DHT22;10915;54.352;9.074;2022-12-05T03:55:07;5.00;99.90
21508;DHT22;10915;54.352;9.074;2022-12-05T03:58:17;4.90;99.90
21508;DHT22;10915;54.352;9.074;2022-12-05T04:01:05;4.90;99.90
21508;DHT22;10915;54.352;9.074;2022-12-05T04:03:39;4.90;99.90
21508;DHT22;10915;54.352;9.074;2022-12-05T04:06:32;4.90;99.90
21508;DHT22;10915;54.352;9.074;2022-12-05T04:09:17;4.80;99.90
21508;DHT22;10915;54.352;9.074;2022-12-05T04:11:56;4.80;99.90
21508;DHT22;10915;54.352;9.074;2022-12-05T04:14:36;4.80;99.90
21508;DHT22;10915;54.352;9.074;2022-12-05T04:17:08;4.80;99.90
21508;DHT22;10915;54.352;9.074;2022-12-05T04:19:54;4.80;99.90
21508;DHT22;10915;54.352;9.074;2022-12-05T04:22:41;4.80;99.90
21508;DHT22;10915;54.352;9.074;2022-12-05T04:25:50;4.80;99.90
21508;DHT22;10915;54.352;9.074;2022-12-05T04:31:43;4.80;99.90
21508;DHT22;10915;54.352;9.074;2022-12-05T04:34:13;4.80;99.90
21508;DHT22;10915;54.352;9.074;2022-12-05T04:36:44;4.80;99.90
21508;DHT22;10915;54.352;9.074;2022-12-05T04:39:14;4.80;99.90
21508;DHT22;10915;54.352;9.074;2022-12-05T04:41:43;4.80;99.90
21508;DHT22;10915;54.352;9.074;2022-12-05T04:44:15;4.80;99.90
21508;DHT22;10915;54.352;9.074;2022-12-05T04:46:43;4.70;99.90
21508;DHT22;10915;54.352;9.074;2022-12-05T04:49:14;4.70;99.90
21508;DHT22;10915;54.352;9.074;2022-12-05T04:51:42;4.70;99.90
21508;DHT22;10915;54.352;9.074;2022-12-05T04:54:42;4.70;99.90
21508;DHT22;10915;54.352;9.074;2022-12-05T04:57:18;4.70;99.90
21508;DHT22;10915;54.352;9.074;2022-12-05T04:59:48;4.70;99.90
21508;DHT22;10915;54.352;9.074;2022-12-05T05:02:51;4.70;99.90
21508;DHT22;10915;54.352;9.074;2022-12-05T05:05:10;4.70;99.90
21508;DHT22;10915;54.352;9.074;2022-12-05T05:07:52;4.70;99.90
21508;DHT22;10915;54.352;9.074;2022-12-05T05:10:39;4.60;99.90
21508;DHT22;10915;54.352;9.074;2022-12-05T05:13:09;4.60;99.90
21508;DHT22;10915;54.352;9.074;2022-12-05T05:15:34;4.60;99.90
21508;DHT22;10915;54.352;9.074;2022-12-05T05:18:00;4.60;99.90
21508;DHT22;10915;54.352;9.074;2022-12-05T05:20:26;4.60;99.90
21508;DHT22;10915;54.352;9.074;2022-12-05T05:22:56;4.60;99.90
21508;DHT22;10915;54.352;9.074;2022-12-05T05:25:23;4.60;99.90
21508;DHT22;10915;54.352;9.074;2022-12-05T05:27:54;4.60;99.90
21508;DHT22;10915;54.352;9.074;2022-12-05T05:30:22;4.60;99.90
21508;DHT22;10915;54.352;9.074;2022-12-05T05:32:48;4.60;99.90
21508;DHT22;10915;54.352;9.074;2022-12-05T05:35:14;4.50;99.90
21508;DHT22;10915;54.352;9.074;2022-12-05T05:37:41;4.50;99.90
21508;DHT22;10915;54.352;9.074;2022-12-05T05:40:08;4.50;99.90
21508;DHT22;10915;54.352;9.074;2022-12-05T05:42:35;4.50;99.90
21508;DHT22;10915;54.352;9.074;2022-12-05T05:45:01;4.50;99.90
21508;DHT22;10915;54.352;9.074;2022-12-05T05:47:26;4.50;99.90
21508;DHT22;10915;54.352;9.074;2022-12-05T05:49:52;4.50;99.90
21508;DHT22;10915;54.352;9.074;2022-12-05T05:52:18;4.50;99.90
21508;DHT22;10915;54.352;9.074;2022-12-05T05:54:44;4.50;99.90
21508;DHT22;10915;54.352;9.074;2022-12-05T05:57:10;4.40;99.90
21508;DHT22;10915;54.352;9.074;2022-12-05T05:59:36;4.40;99.90
21508;DHT22;10915;54.352;9.074;2022-12-05T06:02:02;4.40;99.90
21508;DHT22;10915;54.352;9.074;2022-12-05T06:04:28;4.40;99.90
21508;DHT22;10915;54.352;9.074;2022-12-05T06:06:54;4.40;99.90
21508;DHT22;10915;54.352;9.074;2022-12-05T06:09:20;4.40;99.90
21508;DHT22;10915;54.352;9.074;2022-12-05T06:11:45;4.40;99.90
21508;DHT22;10915;54.352;9.074;2022-12-05T06:14:11;4.40;99.90
21508;DHT22;10915;54.352;9.074;2022-12-05T06:16:37;4.40;99.90
21508;DHT22;10915;54.352;9.074;2022-12-05T06:19:02;4.40;99.90
21508;DHT22;10915;54.352;9.074;2022-12-05T06:21:28;4.40;99.90
21508;DHT22;10915;54.352;9.074;2022-12-05T06:23:55;4.40;99.90
21508;DHT22;10915;54.352;9.074;2022-12-05T06:26:21;4.40;99.90
21508;DHT22;10915;54.352;9.074;2022-12-05T06:28:47;4.40;99.90
21508;DHT22;10915;54.352;9.074;2022-12-05T06:31:16;4.40;99.90
21508;DHT22;10915;54.352;9.074;2022-12-05T06:33:43;4.40;99.90
21508;DHT22;10915;54.352;9.074;2022-12-05T06:36:15;4.40;99.90
21508;DHT22;10915;54.352;9.074;2022-12-05T06:38:42;4.40;99.90
21508;DHT22;10915;54.352;9.074;2022-12-05T06:41:10;4.40;99.90
21508;DHT22;10915;54.352;9.074;2022-12-05T06:43:36;4.40;99.90
21508;DHT22;10915;54.352;9.074;2022-12-05T06:46:06;4.40;99.90
21508;DHT22;10915;54.352;9.074;2022-12-05T06:48:32;4.40;99.90
21508;DHT22;10915;54.352;9.074;2022-12-05T06:50:58;4.40;99.90
21508;DHT22;10915;54.352;9.074;2022-12-05T06:53:24;4.40;99.90
21508;DHT22;10915;54.352;9.074;2022-12-05T06:55:58;4.40;99.90
21508;DHT22;10915;54.352;9.074;2022-12-05T06:58:24;4.40;99.90
21508;DHT22;10915;54.352;9.074;2022-12-05T07:00:50;4.40;99.90
21508;DHT22;10915;54.352;9.074;2022-12-05T07:03:34;4.40;99.90
21508;DHT22;10915;54.352;9.074;2022-12-05T07:06:01;4.40;99.90
21508;DHT22;10915;54.352;9.074;2022-12-05T07:08:27;4.40;99.90
21508;DHT22;10915;54.352;9.074;2022-12-05T07:10:54;4.40;99.90
21508;DHT22;10915;54.352;9.074;2022-12-05T07:13:20;4.50;99.90
21508;DHT22;10915;54.352;9.074;2022-12-05T07:15:49;4.50;99.90
21508;DHT22;10915;54.352;9.074;2022-12-05T07:18:16;4.50;99.90
21508;DHT22;10915;54.352;9.074;2022-12-05T07:20:43;4.50;99.90
21508;DHT22;10915;54.352;9.074;2022-12-05T07:23:09;4.50;99.90
21508;DHT22;10915;54.352;9.074;2022-12-05T07:25:39;4.50;99.90
21508;DHT22;10915;54.352;9.074;2022-12-05T07:28:06;4.50;99.90
21508;DHT22;10915;54.352;9.074;2022-12-05T07:30:31;4.50;99.90
21508;DHT22;10915;54.352;9.074;2022-12-05T07:32:57;4.50;99.90
21508;DHT22;10915;54.352;9.074;2022-12-05T07:35:23;4.50;99.90
21508;DHT22;10915;54.352;9.074;2022-12-05T07:37:49;4.50;99.90
21508;DHT22;10915;54.352;9.074;2022-12-05T07:40:14;4.50;99.90
21508;DHT22;10915;54.352;9.074;2022-12-05T07:42:40;4.50;99.90
21508;DHT22;10915;54.352;9.074;2022-12-05T07:45:06;4.50;99.90
21508;DHT22;10915;54.352;9.074;2022-12-05T07:47:33;4.50;99.90
21508;DHT22;10915;54.352;9.074;2022-12-05T07:49:59;4.50;99.90
21508;DHT22;10915;54.352;9.074;2022-12-05T07:52:25;4.50;99.90
21508;DHT22;10915;54.352;9.074;2022-12-05T07:54:51;4.50;99.90
21508;DHT22;10915;54.352;9.074;2022-12-05T07:57:16;4.50;99.90
21508;DHT22;10915;54.352;9.074;2022-12-05T07:59:42;4.50;99.90
21508;DHT22;10915;54.352;9.074;2022-12-05T08:02:08;4.50;99.90
21508;DHT22;10915;54.352;9.074;2022-12-05T08:04:34;4.50;99.90
21508;DHT22;10915;54.352;9.074;2022-12-05T08:06:59;4.50;99.90
21508;DHT22;10915;54.352;9.074;2022-12-05T08:09:25;4.60;99.90
21508;DHT22;10915;54.352;9.074;2022-12-05T08:11:52;4.50;99.90
21508;DHT22;10915;54.352;9.074;2022-12-05T08:14:18;4.60;99.90
21508;DHT22;10915;54.352;9.074;2022-12-05T08:16:44;4.60;99.90
21508;DHT22;10915;54.352;9.074;2022-12-05T08:19:10;4.60;99.90
21508;DHT22;10915;54.352;9.074;2022-12-05T08:21:38;4.50;99.90
21508;DHT22;10915;54.352;9.074;2022-12-05T08:24:05;4.50;99.90
21508;DHT22;10915;54.352;9.074;2022-12-05T08:26:33;4.60;99.90
21508;DHT22;10915;54.352;9.074;2022-12-05T08:29:08;4.50;99.90
21508;DHT22;10915;54.352;9.074;2022-12-05T08:31:40;4.50;99.90
21508;DHT22;10915;54.352;9.074;2022-12-05T08:34:09;4.60;99.90
21508;DHT22;10915;54.352;9.074;2022-12-05T08:36:35;4.60;99.90
21508;DHT22;10915;54.352;9.074;2022-12-05T08:39:04;4.60;99.90
21508;DHT22;10915;54.352;9.074;2022-12-05T08:41:30;4.60;99.90
21508;DHT22;10915;54.352;9.074;2022-12-05T08:43:57;4.60;99.90
21508;DHT22;10915;54.352;9.074;2022-12-05T08:46:23;4.60;99.90
21508;DHT22;10915;54.352;9.074;2022-12-05T08:48:48;4.60;99.90
21508;DHT22;10915;54.352;9.074;2022-12-05T08:51:14;4.60;99.90
21508;DHT22;10915;54.352;9.074;2022-12-05T08:53:40;4.60;99.90
21508;DHT22;10915;54.352;9.074;2022-12-05T08:56:09;4.60;99.90
21508;DHT22;10915;54.352;9.074;2022-12-05T08:58:35;4.60;99.90
21508;DHT22;10915;54.352;9.074;2022-12-05T09:01:09;4.60;99.90
21508;DHT22;10915;54.352;9.074;2022-12-05T09:03:36;4.70;99.90
21508;DHT22;10915;54.352;9.074;2022-12-05T09:06:17;4.70;99.90
21508;DHT22;10915;54.352;9.074;2022-12-05T09:08:44;4.70;99.90
21508;DHT22;10915;54.352;9.074;2022-12-05T09:11:19;4.70;99.90
21508;DHT22;10915;54.352;9.074;2022-12-05T09:13:46;4.70;99.90
21508;DHT22;10915;54.352;9.074;2022-12-05T09:16:15;4.70;99.90
21508;DHT22;10915;54.352;9.074;2022-12-05T09:18:41;4.70;99.90
21508;DHT22;10915;54.352;9.074;2022-12-05T09:21:12;4.70;99.90
21508;DHT22;10915;54.352;9.074;2022-12-05T09:23:39;4.70;99.90
21508;DHT22;10915;54.352;9.074;2022-12-05T09:26:07;4.70;99.90
21508;DHT22;10915;54.352;9.074;2022-12-05T09:28:34;4.70;99.90
21508;DHT22;10915;54.352;9.074;2022-12-05T09:31:02;4.70;99.90
21508;DHT22;10915;54.352;9.074;2022-12-05T09:33:30;4.70;99.90
21508;DHT22;10915;54.352;9.074;2022-12-05T09:35:56;4.70;99.90
21508;DHT22;10915;54.352;9.074;2022-12-05T09:38:23;4.80;99.90
21508;DHT22;10915;54.352;9.074;2022-12-05T09:52:35;4.80;99.90
21508;DHT22;10915;54.352;9.074;2022-12-05T09:55:10;4.70;99.90
21508;DHT22;10915;54.352;9.074;2022-12-05T09:57:44;4.70;99.90
21508;DHT22;10915;54.352;9.074;2022-12-05T10:00:12;4.80;99.90
21508;DHT22;10915;54.352;9.074;2022-12-05T10:08:31;4.80;99.90
21508;DHT22;10915;54.352;9.074;2022-12-05T10:11:15;4.80;99.90
21508;DHT22;10915;54.352;9.074;2022-12-05T10:13:44;4.80;99.90
21508;DHT22;10915;54.352;9.074;2022-12-05T10:16:34;4.80;99.90
21508;DHT22;10915;54.352;9.074;2022-12-05T10:19:15;4.80;99.90
21508;DHT22;10915;54.352;9.074;2022-12-05T10:22:09;4.90;99.90
21508;DHT22;10915;54.352;9.074;2022-12-05T10:24:51;4.80;99.90
21508;DHT22;10915;54.352;9.074;2022-12-05T10:27:23;4.80;99.90
21508;DHT22;10915;54.352;9.074;2022-12-05T10:35:26;4.80;99.90
21508;DHT22;10915;54.352;9.074;2022-12-05T10:37:57;4.80;99.90
21508;DHT22;10915;54.352;9.074;2022-12-05T10:40:26;4.80;99.90
21508;DHT22;10915;54.352;9.074;2022-12-05T10:42:57;4.80;99.90
21508;DHT22;10915;54.352;9.074;2022-12-05T10:45:23;4.80;99.90
21508;DHT22;10915;54.352;9.074;2022-12-05T10:47:54;4.80;99.90
21508;DHT22;10915;54.352;9.074;2022-12-05T10:50:30;4.80;99.90
21508;DHT22;10915;54.352;9.074;2022-12-05T10:52:58;4.80;99.90
21508;DHT22;10915;54.352;9.074;2022-12-05T10:55:35;4.80;99.90
21508;DHT22;10915;54.352;9.074;2022-12-05T10:58:25;4.80;99.90
21508;DHT22;10915;54.352;9.074;2022-12-05T11:01:12;4.80;99.90
21508;DHT22;10915;54.352;9.074;2022-12-05T11:03:39;4.80;99.90
21508;DHT22;10915;54.352;9.074;2022-12-05T11:06:28;4.70;99.90
21508;DHT22;10915;54.352;9.074;2022-12-05T11:26:43;4.80;99.90
21508;DHT22;10915;54.352;9.074;2022-12-05T11:29:35;4.70;99.90
21508;DHT22;10915;54.352;9.074;2022-12-05T11:32:03;4.70;99.90
21508;DHT22;10915;54.352;9.074;2022-12-05T11:34:37;4.70;99.90
21508;DHT22;10915;54.352;9.074;2022-12-05T11:37:10;4.80;99.90
21508;DHT22;10915;54.352;9.074;2022-12-05T11:39:37;4.70;99.90
21508;DHT22;10915;54.352;9.074;2022-12-05T11:45:23;4.80;99.90
21508;DHT22;10915;54.352;9.074;2022-12-05T11:54:04;4.80;99.90
21508;DHT22;10915;54.352;9.074;2022-12-05T11:56:54;4.80;99.90
21508;DHT22;10915;54.352;9.074;2022-12-05T12:04:48;4.80;99.90
21508;DHT22;10915;54.352;9.074;2022-12-05T12:07:36;4.80;99.90
21508;DHT22;10915;54.352;9.074;2022-12-05T12:15:50;4.80;99.90
21508;DHT22;10915;54.352;9.074;2022-12-05T12:29:41;4.90;99.90
21508;DHT22;10915;54.352;9.074;2022-12-05T12:40:55;4.90;99.90
21508;DHT22;10915;54.352;9.074;2022-12-05T12:43:38;4.90;99.90
21508;DHT22;10915;54.352;9.074;2022-12-05T12:51:52;4.90;99.90
21508;DHT22;10915;54.352;9.074;2022-12-05T12:57:31;4.80;99.90
21508;DHT22;10915;54.352;9.074;2022-12-05T13:03:23;4.90;99.90
21508;DHT22;10915;54.352;9.074;2022-12-05T13:06:25;4.90;99.90
21508;DHT22;10915;54.352;9.074;2022-12-05T13:09:01;4.90;99.90
21508;DHT22;10915;54.352;9.074;2022-12-05T13:11:30;4.90;99.90
21508;DHT22;10915;54.352;9.074;2022-12-05T13:14:16;4.90;99.90
21508;DHT22;10915;54.352;9.074;2022-12-05T13:16:49;4.90;99.90
21508;DHT22;10915;54.352;9.074;2022-12-05T13:19:28;4.80;99.90
21508;DHT22;10915;54.352;9.074;2022-12-05T13:22:23;4.80;99.90
21508;DHT22;10915;54.352;9.074;2022-12-05T13:24:55;4.80;99.90
21508;DHT22;10915;54.352;9.074;2022-12-05T13:27:33;4.90;99.90
21508;DHT22;10915;54.352;9.074;2022-12-05T13:30:17;4.90;99.90
21508;DHT22;10915;54.352;9.074;2022-12-05T13:32:46;4.90;99.90
21508;DHT22;10915;54.352;9.074;2022-12-05T13:35:30;4.90;99.90
21508;DHT22;10915;54.352;9.074;2022-12-05T13:38:30;4.90;99.90
21508;DHT22;10915;54.352;9.074;2022-12-05T13:41:20;4.90;99.90
21508;DHT22;10915;54.352;9.074;2022-12-05T13:44:06;4.90;99.90
21508;DHT22;10915;54.352;9.074;2022-12-05T13:46:39;4.90;99.90
21508;DHT22;10915;54.352;9.074;2022-12-05T13:52:22;4.90;99.90
21508;DHT22;10915;54.352;9.074;2022-12-05T13:55:53;4.90;99.90
21508;DHT22;10915;54.352;9.074;2022-12-05T13:57:55;4.80;99.90
21508;DHT22;10915;54.352;9.074;2022-12-05T14:00:29;4.90;99.90
21508;DHT22;10915;54.352;9.074;2022-12-05T14:02:57;4.90;99.90
21508;DHT22;10915;54.352;9.074;2022-12-05T14:07:54;4.80;99.90
21508;DHT22;10915;54.352;9.074;2022-12-05T14:11:06;4.80;99.90
21508;DHT22;10915;54.352;9.074;2022-12-05T14:21:49;4.80;99.90
21508;DHT22;10915;54.352;9.074;2022-12-05T14:27:42;4.80;99.90
21508;DHT22;10915;54.352;9.074;2022-12-05T14:32:38;4.80;99.90
21508;DHT22;10915;54.352;9.074;2022-12-05T14:38:00;4.80;99.90
21508;DHT22;10915;54.352;9.074;2022-12-05T14:40:38;4.80;99.90
21508;DHT22;10915;54.352;9.074;2022-12-05T14:50:56;4.80;99.90
21508;DHT22;10915;54.352;9.074;2022-12-05T14:53:34;4.80;99.90
21508;DHT22;10915;54.352;9.074;2022-12-05T14:58:54;4.80;99.90
21508;DHT22;10915;54.352;9.074;2022-12-05T15:12:00;4.80;99.90
21508;DHT22;10915;54.352;9.074;2022-12-05T15:14:28;4.80;99.90
21508;DHT22;10915;54.352;9.074;2022-12-05T15:16:58;4.80;99.90
21508;DHT22;10915;54.352;9.074;2022-12-05T15:19:40;4.80;99.90
21508;DHT22;10915;54.352;9.074;2022-12-05T15:22:08;4.80;99.90
21508;DHT22;10915;54.352;9.074;2022-12-05T15:24:37;4.80;99.90
21508;DHT22;10915;54.352;9.074;2022-12-05T15:27:05;4.80;99.90
21508;DHT22;10915;54.352;9.074;2022-12-05T15:29:36;4.80;99.90
21508;DHT22;10915;54.352;9.074;2022-12-05T15:32:23;4.80;99.90
21508;DHT22;10915;54.352;9.074;2022-12-05T15:35:04;4.80;99.90
21508;DHT22;10915;54.352;9.074;2022-12-05T15:37:56;4.80;99.90
21508;DHT22;10915;54.352;9.074;2022-12-05T15:40:24;4.80;99.90
21508;DHT22;10915;54.352;9.074;2022-12-05T15:42:55;4.80;99.90
21508;DHT22;10915;54.352;9.074;2022-12-05T15:45:28;4.80;99.90
21508;DHT22;10915;54.352;9.074;2022-12-05T15:47:55;4.80;99.90
21508;DHT22;10915;54.352;9.074;2022-12-05T15:50:40;4.80;99.90
21508;DHT22;10915;54.352;9.074;2022-12-05T15:53:36;4.80;99.90
21508;DHT22;10915;54.352;9.074;2022-12-05T15:56:16;4.80;99.90
21508;DHT22;10915;54.352;9.074;2022-12-05T15:59:01;4.90;99.90
21508;DHT22;10915;54.352;9.074;2022-12-05T16:01:27;5.00;99.90
21508;DHT22;10915;54.352;9.074;2022-12-05T16:04:01;5.00;99.90
21508;DHT22;10915;54.352;9.074;2022-12-05T16:08:56;5.00;99.90
21508;DHT22;10915;54.352;9.074;2022-12-05T16:11:22;5.00;99.90
21508;DHT22;10915;54.352;9.074;2022-12-05T16:13:57;5.00;99.90
21508;DHT22;10915;54.352;9.074;2022-12-05T16:16:28;4.90;99.90
21508;DHT22;10915;54.352;9.074;2022-12-05T16:18:58;4.90;99.90
21508;DHT22;10915;54.352;9.074;2022-12-05T16:21:38;5.00;99.90
21508;DHT22;10915;54.352;9.074;2022-12-05T16:24:07;4.90;99.90
21508;DHT22;10915;54.352;9.074;2022-12-05T16:26:38;5.00;99.90
21508;DHT22;10915;54.352;9.074;2022-12-05T16:29:05;4.90;99.90
21508;DHT22;10915;54.352;9.074;2022-12-05T16:31:33;5.00;99.90
21508;DHT22;10915;54.352;9.074;2022-12-05T16:34:14;4.90;99.90
21508;DHT22;10915;54.352;9.074;2022-12-05T16:36:48;4.90;99.90
21508;DHT22;10915;54.352;9.074;2022-12-05T16:39:15;4.80;99.90
21508;DHT22;10915;54.352;9.074;2022-12-05T16:41:41;4.80;99.90
21508;DHT22;10915;54.352;9.074;2022-12-05T16:46:52;4.80;99.90
21508;DHT22;10915;54.352;9.074;2022-12-05T16:51:58;4.80;99.90
21508;DHT22;10915;54.352;9.074;2022-12-05T16:54:24;4.80;99.90
21508;DHT22;10915;54.352;9.074;2022-12-05T16:56:49;4.80;99.90
21508;DHT22;10915;54.352;9.074;2022-12-05T16:59:45;4.80;99.90
21508;DHT22;10915;54.352;9.074;2022-12-05T17:02:15;4.80;99.90
21508;DHT22;10915;54.352;9.074;2022-12-05T17:04:41;4.70;99.90
21508;DHT22;10915;54.352;9.074;2022-12-05T17:07:07;4.70;99.90
21508;DHT22;10915;54.352;9.074;2022-12-05T17:09:33;4.70;99.90
21508;DHT22;10915;54.352;9.074;2022-12-05T17:12:06;4.70;99.90
21508;DHT22;10915;54.352;9.074;2022-12-05T17:14:35;4.70;99.90
21508;DHT22;10915;54.352;9.074;2022-12-05T17:17:01;4.80;99.90
21508;DHT22;10915;54.352;9.074;2022-12-05T17:19:27;4.70;99.90
21508;DHT22;10915;54.352;9.074;2022-12-05T17:21:54;4.80;99.90
21508;DHT22;10915;54.352;9.074;2022-12-05T17:24:19;4.70;99.90
21508;DHT22;10915;54.352;9.074;2022-12-05T17:26:45;4.70;99.90
21508;DHT22;10915;54.352;9.074;2022-12-05T17:29:12;4.80;99.90
21508;DHT22;10915;54.352;9.074;2022-12-05T17:31:37;4.70;99.90
21508;DHT22;10915;54.352;9.074;2022-12-05T17:34:11;4.70;99.90
21508;DHT22;10915;54.352;9.074;2022-12-05T17:36:37;4.70;99.90
21508;DHT22;10915;54.352;9.074;2022-12-05T17:39:03;4.70;99.90
21508;DHT22;10915;54.352;9.074;2022-12-05T17:41:29;4.70;99.90
21508;DHT22;10915;54.352;9.074;2022-12-05T17:43:55;4.70;99.90
21508;DHT22;10915;54.352;9.074;2022-12-05T17:46:22;4.70;99.90
21508;DHT22;10915;54.352;9.074;2022-12-05T17:48:49;4.70;99.90
21508;DHT22;10915;54.352;9.074;2022-12-05T17:51:15;4.70;99.90
21508;DHT22;10915;54.352;9.074;2022-12-05T17:53:41;4.70;99.90
21508;DHT22;10915;54.352;9.074;2022-12-05T17:56:09;4.70;99.90
21508;DHT22;10915;54.352;9.074;2022-12-05T17:58:34;4.70;99.90
21508;DHT22;10915;54.352;9.074;2022-12-05T18:01:00;4.70;99.90
21508;DHT22;10915;54.352;9.074;2022-12-05T18:03:27;4.70;99.90
21508;DHT22;10915;54.352;9.074;2022-12-05T18:05:53;4.70;99.90
21508;DHT22;10915;54.352;9.074;2022-12-05T18:08:18;4.70;99.90
21508;DHT22;10915;54.352;9.074;2022-12-05T18:10:46;4.70;99.90
21508;DHT22;10915;54.352;9.074;2022-12-05T18:13:12;4.70;99.90
21508;DHT22;10915;54.352;9.074;2022-12-05T18:15:38;4.70;99.90
21508;DHT22;10915;54.352;9.074;2022-12-05T18:18:05;4.70;99.90
21508;DHT22;10915;54.352;9.074;2022-12-05T18:20:33;4.70;99.90
21508;DHT22;10915;54.352;9.074;2022-12-05T18:22:59;4.70;99.90
21508;DHT22;10915;54.352;9.074;2022-12-05T18:25:26;4.70;99.90
21508;DHT22;10915;54.352;9.074;2022-12-05T18:27:51;4.70;99.90
21508;DHT22;10915;54.352;9.074;2022-12-05T18:30:17;4.70;99.90
21508;DHT22;10915;54.352;9.074;2022-12-05T18:32:43;4.70;99.90
21508;DHT22;10915;54.352;9.074;2022-12-05T18:35:09;4.70;99.90
21508;DHT22;10915;54.352;9.074;2022-12-05T18:37:36;4.70;99.90
21508;DHT22;10915;54.352;9.074;2022-12-05T18:40:06;4.70;99.90
21508;DHT22;10915;54.352;9.074;2022-12-05T18:42:32;4.70;99.90
21508;DHT22;10915;54.352;9.074;2022-12-05T18:44:58;4.70;99.90
21508;DHT22;10915;54.352;9.074;2022-12-05T18:47:25;4.70;99.90
21508;DHT22;10915;54.352;9.074;2022-12-05T18:49:50;4.70;99.90
21508;DHT22;10915;54.352;9.074;2022-12-05T18:52:16;4.70;99.90
21508;DHT22;10915;54.352;9.074;2022-12-05T18:54:42;4.70;99.90
21508;DHT22;10915;54.352;9.074;2022-12-05T18:57:08;4.70;99.90
21508;DHT22;10915;54.352;9.074;2022-12-05T18:59:34;4.70;99.90
21508;DHT22;10915;54.352;9.074;2022-12-05T19:02:00;4.80;99.90
21508;DHT22;10915;54.352;9.074;2022-12-05T19:04:27;4.70;99.90
21508;DHT22;10915;54.352;9.074;2022-12-05T19:06:55;4.70;99.90
21508;DHT22;10915;54.352;9.074;2022-12-05T19:09:25;4.80;99.90
21508;DHT22;10915;54.352;9.074;2022-12-05T19:11:53;4.80;99.90
21508;DHT22;10915;54.352;9.074;2022-12-05T19:14:19;4.80;99.90
21508;DHT22;10915;54.352;9.074;2022-12-05T19:16:51;4.80;99.90
21508;DHT22;10915;54.352;9.074;2022-12-05T19:19:20;4.80;99.90
21508;DHT22;10915;54.352;9.074;2022-12-05T19:21:46;4.90;99.90
21508;DHT22;10915;54.352;9.074;2022-12-05T19:24:15;4.90;99.90
21508;DHT22;10915;54.352;9.074;2022-12-05T19:26:41;5.00;99.90
21508;DHT22;10915;54.352;9.074;2022-12-05T19:29:09;5.00;99.90